Milford, NJ

6:23 AM EDT on October 24, 2014 (GMT -0400)
Alexandria | Change Station
CLOSE
Current Station
Personal Weather Station
Location: Milford, NJ
Elevation: 781 ft
Nearby Weather Stations

Elev 781 ft 40.62 °N, 75.07 °W | Updated 7 minutes ago

Overcast
Overcast
51.0 °F
Feels Like 51.0 °F
N
4.0
Wind Variable Wind from SW

Today
High -- | Low -- °F
--% Chance of Precip.
Yesterday
High -- | Low -- °F
Precip. -- in
7:21 AM 6:07 PM
New Moon, 0% visible
Pressure 29.84 in
Visibility 10.0 miles
Clouds Overcast 2600 ft
Dew Point 46 °F
Humidity 82%
Rainfall 0.00 in
Snow Depth Not available.
UV 0 out of 12
Pollen .10 out of 12
Air Quality Not available.
Flu Activity Not available.
METAR KDYL 240954Z AUTO 32005KT 10SM OVC026 11/07 A2983 RMK AO2 SLP103 T01110067 $

More Conditions Fewer Conditions

Pressure 29.84 in
Visibility 10.0 miles
Clouds Overcast 2600 ft
Dew Point 46 °F
Humidity 82%
Rainfall 0.00 in
Snow Depth Not available.
UV 0 out of 12
Pollen .10 out of 12
Air Quality Not available.
Flu Activity Not available.
METAR KDYL 240954Z AUTO 32005KT 10SM OVC026 11/07 A2983 RMK AO2 SLP103 T01110067 $

More Conditions Fewer Conditions

10-Day Weather Forecast

Almanac

Astronomy

Oct. 24, 2014 Rise Set
Actual Time 7:21 AM EDT 6:07 PM EDT
Civil Twilight 6:53 AM EDT 6:35 PM EDT
Nautical Twilight 6:21 AM EDT 7:06 PM EDT
Astronomical Twilight 5:49 AM EDT 7:38 PM EDT
Moon 7:58 AM EDT 6:45 PM EDT
Length of Visible Light 11h 41m
Length of Day
10h 45m
Tomorrow will be 2m 30s shorter.
New Moon, 0% of the Moon is Illuminated
Today
New Moon
Oct 30
First Quarter
Nov 6
Full
Nov 14
Last Quarter
Nov 22
New

Today's Extremes

State Highs State Lows

Community

WunderPhotos

Upload Photos

1,764,513 photos uploaded!

WunderBlogs® & News

Nearby

Snow Depth

Station Depth Elevation
No new snow has been reported.

Earthquake Activity

City Distance Mag. Time & Date
No recent earthquake activity has been reported nearby.
Minimum magnitude displayed is 2.5.

Coastal Water Temperatures

Place Temperature
No Stations Reporting

Nearby Weather Stations